createdAt,value
2022-11-07T00:01:34.779Z,10.33
2022-11-07T00:04:01.774Z,9.10
2022-11-07T00:06:28.629Z,10.40
2022-11-07T00:08:56.095Z,9.87
2022-11-07T00:11:22.957Z,9.90
2022-11-07T00:13:49.850Z,10.33
2022-11-07T00:16:16.883Z,10.60
2022-11-07T00:18:43.758Z,9.30
2022-11-07T00:21:10.994Z,10.13
2022-11-07T00:23:41.379Z,10.37
2022-11-07T00:26:13.651Z,9.00
2022-11-07T00:28:43.515Z,10.00
2022-11-07T00:31:12.791Z,8.77
2022-11-07T00:33:40.453Z,9.37
2022-11-07T00:36:08.457Z,8.60
2022-11-07T00:38:35.523Z,10.50
2022-11-07T00:41:05.651Z,8.73
2022-11-07T00:43:33.349Z,9.83
2022-11-07T00:46:05.323Z,9.40
2022-11-07T00:48:32.669Z,8.20
2022-11-07T00:51:08.576Z,8.80
2022-11-07T00:53:35.520Z,9.27
2022-11-07T00:56:04.886Z,9.10
2022-11-07T00:58:32.041Z,9.00
2022-11-07T01:00:59.569Z,9.13
2022-11-07T01:03:45.536Z,9.70
2022-11-07T01:06:12.409Z,7.47
2022-11-07T01:08:39.295Z,8.03
2022-11-07T01:11:07.827Z,9.30
2022-11-07T01:13:36.005Z,9.93
2022-11-07T01:16:03.293Z,8.33
2022-11-07T01:18:30.367Z,9.30
2022-11-07T01:20:57.237Z,8.37
2022-11-07T01:23:24.163Z,8.57
2022-11-07T01:25:51.054Z,9.00
2022-11-07T01:28:17.997Z,8.27
2022-11-07T01:30:45.942Z,8.90
2022-11-07T01:33:13.445Z,6.63
2022-11-07T01:35:41.098Z,8.17
2022-11-07T01:38:08.086Z,8.00
2022-11-07T01:41:02.566Z,8.57
2022-11-07T01:44:23.957Z,8.30
2022-11-07T01:46:52.653Z,7.87
2022-11-07T01:49:37.826Z,9.00
2022-11-07T01:52:06.543Z,8.53
2022-11-07T01:54:43.612Z,7.77
2022-11-07T01:57:19.750Z,8.57
2022-11-07T01:59:48.368Z,9.10
2022-11-07T02:02:15.563Z,8.27
2022-11-07T02:04:43.031Z,7.83
2022-11-07T02:07:18.943Z,7.77
2022-11-07T02:09:46.257Z,7.60
2022-11-07T02:12:13.909Z,7.43
2022-11-07T02:14:43.046Z,9.13
2022-11-07T02:17:14.627Z,8.83
2022-11-07T02:19:51.067Z,7.87
2022-11-07T02:22:36.659Z,7.50
2022-11-07T02:25:08.723Z,8.13
2022-11-07T02:27:37.373Z,7.60
2022-11-07T02:30:16.275Z,7.60
2022-11-07T02:32:43.305Z,8.93
2022-11-07T02:35:41.482Z,8.83
2022-11-07T02:38:25.586Z,8.33
2022-11-07T02:41:05.351Z,7.57
2022-11-07T02:43:35.171Z,8.33
2022-11-07T02:46:06.430Z,8.10
2022-11-07T02:48:44.266Z,8.27
2022-11-07T02:51:11.174Z,8.30
2022-11-07T02:53:38.064Z,8.07
2022-11-07T02:56:05.881Z,7.63
2022-11-07T02:58:33.216Z,7.53
2022-11-07T03:01:06.990Z,6.90
2022-11-07T03:03:39.336Z,7.50
2022-11-07T03:06:07.990Z,8.00
2022-11-07T03:08:35.277Z,7.90
2022-11-07T03:11:03.155Z,7.03
2022-11-07T03:13:30.049Z,7.03
2022-11-07T03:15:58.051Z,8.30
2022-11-07T03:18:25.348Z,6.73
2022-11-07T03:20:52.255Z,7.80
2022-11-07T03:23:19.146Z,7.93
2022-11-07T03:25:46.027Z,7.63
2022-11-07T03:28:12.898Z,8.40
2022-11-07T03:30:39.772Z,8.53
2022-11-07T03:33:07.159Z,7.60
2022-11-07T03:35:34.060Z,7.80
2022-11-07T03:38:00.956Z,7.20
2022-11-07T03:40:29.493Z,8.80
2022-11-07T03:42:56.442Z,7.47
2022-11-07T03:45:23.334Z,8.70
2022-11-07T03:47:50.228Z,7.40
2022-11-07T03:50:21.138Z,8.47
2022-11-07T03:52:49.051Z,7.73
2022-11-07T03:55:18.177Z,8.23
2022-11-07T03:57:45.970Z,7.97
2022-11-07T04:00:14.879Z,8.50
2022-11-07T04:02:43.234Z,7.40
2022-11-07T04:05:12.053Z,7.93
2022-11-07T04:07:38.986Z,7.93
2022-11-07T04:10:06.110Z,7.30
2022-11-07T04:12:51.301Z,7.60
2022-11-07T04:15:36.833Z,7.60
2022-11-07T04:18:03.785Z,7.53
2022-11-07T04:20:30.666Z,8.10
2022-11-07T04:22:57.707Z,7.83
2022-11-07T04:25:44.788Z,7.53
2022-11-07T04:28:11.743Z,7.27
2022-11-07T04:30:38.605Z,6.40
2022-11-07T04:33:05.620Z,7.70
2022-11-07T04:35:33.661Z,7.10
2022-11-07T04:38:01.581Z,7.10
2022-11-07T04:40:29.833Z,7.37
2022-11-07T04:42:57.219Z,7.80
2022-11-07T04:45:24.413Z,7.47
2022-11-07T04:47:51.339Z,7.00
2022-11-07T04:50:20.399Z,7.23
2022-11-07T04:52:47.998Z,7.07
2022-11-07T04:55:25.161Z,7.73
2022-11-07T04:57:52.519Z,7.83
2022-11-07T05:00:20.748Z,6.80
2022-11-07T05:02:48.804Z,6.83
2022-11-07T05:05:16.971Z,7.00
2022-11-07T05:07:44.262Z,5.90
2022-11-07T05:10:25.490Z,7.90
2022-11-07T05:12:53.175Z,7.10
2022-11-07T05:15:20.614Z,6.60
2022-11-07T05:17:47.633Z,6.30
2022-11-07T05:20:34.661Z,5.73
2022-11-07T05:23:18.931Z,5.30
2022-11-07T05:25:54.828Z,6.03
2022-11-07T05:28:35.549Z,6.27
2022-11-07T05:31:07.040Z,7.00
2022-11-07T05:33:34.717Z,6.23
2022-11-07T05:36:13.660Z,7.10
2022-11-07T05:38:43.280Z,6.93
2022-11-07T05:41:10.838Z,6.30
2022-11-07T05:43:38.840Z,6.10
2022-11-07T05:46:06.103Z,6.73
2022-11-07T05:48:33.030Z,6.30
2022-11-07T05:51:00.420Z,6.83
2022-11-07T05:53:27.772Z,6.57
2022-11-07T05:55:55.768Z,6.80
2022-11-07T05:58:22.885Z,6.23
2022-11-07T06:00:49.866Z,5.73
2022-11-07T06:03:18.445Z,6.20
2022-11-07T06:05:46.138Z,6.13
2022-11-07T06:08:14.144Z,6.37
2022-11-07T06:10:42.829Z,4.90
2022-11-07T06:13:15.054Z,5.63
2022-11-07T06:15:44.200Z,6.10
2022-11-07T06:18:20.463Z,6.17
2022-11-07T06:20:47.362Z,6.10
2022-11-07T06:23:14.731Z,5.60
2022-11-07T06:25:42.151Z,4.80
2022-11-07T06:28:12.325Z,4.80
2022-11-07T06:30:39.533Z,4.87
2022-11-07T06:33:10.904Z,4.80
2022-11-07T06:35:37.985Z,5.40
2022-11-07T06:38:08.800Z,5.60
2022-11-07T06:40:35.856Z,5.13
2022-11-07T06:43:15.187Z,4.73
2022-11-07T06:45:43.288Z,4.50
2022-11-07T06:48:10.594Z,5.27
2022-11-07T06:50:38.181Z,4.83
2022-11-07T06:53:11.059Z,4.30
2022-11-07T06:55:38.630Z,4.50
2022-11-07T06:58:05.888Z,4.60
2022-11-07T07:00:35.893Z,4.50
2022-11-07T07:03:02.885Z,4.57
2022-11-07T07:05:29.860Z,4.63
2022-11-07T07:07:56.887Z,4.43
2022-11-07T07:10:25.229Z,4.47
2022-11-07T07:12:53.548Z,3.67
2022-11-07T07:15:20.556Z,4.13
2022-11-07T07:17:47.400Z,3.90
2022-11-07T07:20:14.632Z,4.23
2022-11-07T07:22:41.477Z,3.93
2022-11-07T07:25:09.340Z,3.93
2022-11-07T07:27:36.181Z,4.10
2022-11-07T07:30:03.346Z,4.63
2022-11-07T07:32:30.183Z,4.87
2022-11-07T07:34:57.013Z,4.63
2022-11-07T07:37:23.851Z,4.27
2022-11-07T07:39:50.745Z,4.00
2022-11-07T07:42:17.621Z,4.33
2022-11-07T07:44:45.671Z,4.10
2022-11-07T07:47:12.597Z,4.70
2022-11-07T07:49:39.461Z,4.00
2022-11-07T07:52:06.662Z,4.20
2022-11-07T07:54:33.538Z,4.27
2022-11-07T07:57:01.458Z,3.97
2022-11-07T07:59:28.401Z,4.47
2022-11-07T08:01:57.213Z,4.23
2022-11-07T08:04:24.425Z,3.70
2022-11-07T08:06:51.350Z,3.23
2022-11-07T08:09:18.243Z,4.00
2022-11-07T08:11:45.125Z,3.50
2022-11-07T08:14:11.996Z,4.30
2022-11-07T08:16:38.885Z,3.93
2022-11-07T08:19:05.775Z,3.87
2022-11-07T08:21:32.837Z,3.50
2022-11-07T08:24:00.874Z,3.20
2022-11-07T08:26:27.798Z,3.97
2022-11-07T08:28:55.074Z,3.67
2022-11-07T08:31:21.982Z,3.87
2022-11-07T08:33:48.963Z,3.57
2022-11-07T08:36:15.846Z,3.70
2022-11-07T08:38:42.732Z,2.90
2022-11-07T08:41:09.821Z,4.50
2022-11-07T08:43:36.702Z,3.37
2022-11-07T08:46:03.669Z,3.63
2022-11-07T08:48:30.576Z,3.10
2022-11-07T08:50:59.298Z,3.47
2022-11-07T08:53:27.081Z,3.00
2022-11-07T08:56:06.249Z,3.37
2022-11-07T08:58:33.937Z,3.20
2022-11-07T09:01:00.930Z,3.60
2022-11-07T09:03:50.273Z,3.40
2022-11-07T09:06:15.037Z,2.90
2022-11-07T09:08:41.991Z,3.27
2022-11-07T09:11:09.249Z,3.60
2022-11-07T09:13:37.750Z,3.10
2022-11-07T09:16:05.580Z,3.23
2022-11-07T09:18:33.351Z,2.83
2022-11-07T09:21:00.472Z,3.10
2022-11-07T09:23:28.141Z,3.13
2022-11-07T09:25:55.365Z,2.60
2022-11-07T09:28:22.408Z,2.40
2022-11-07T09:30:54.460Z,2.63
2022-11-07T09:33:22.510Z,2.77
2022-11-07T09:35:49.637Z,2.37
2022-11-07T09:38:17.321Z,2.90
2022-11-07T09:41:19.824Z,2.83
2022-11-07T09:44:10.999Z,2.90
2022-11-07T09:46:52.984Z,2.90
2022-11-07T09:49:46.460Z,3.83
2022-11-07T09:52:35.867Z,2.87
2022-11-07T09:55:26.048Z,3.30
2022-11-07T09:57:57.842Z,3.60
2022-11-07T10:00:25.302Z,3.03
2022-11-07T10:02:58.138Z,3.20
2022-11-07T10:05:55.116Z,2.80
2022-11-07T10:09:06.305Z,2.90
2022-11-07T10:11:57.265Z,2.43
2022-11-07T10:14:58.880Z,3.30
2022-11-07T10:18:21.821Z,3.03
2022-11-07T10:21:35.374Z,3.17
2022-11-07T10:24:24.758Z,3.27
2022-11-07T10:26:51.750Z,2.53
2022-11-07T10:29:21.691Z,2.70
2022-11-07T10:32:05.275Z,2.40
2022-11-07T10:34:38.286Z,3.03
2022-11-07T10:37:05.201Z,2.33
2022-11-07T10:39:33.440Z,3.20
2022-11-07T10:42:10.013Z,2.97
2022-11-07T10:44:41.544Z,3.30
2022-11-07T10:47:23.974Z,3.17
2022-11-07T10:50:00.642Z,3.27
2022-11-07T10:52:29.051Z,2.87
2022-11-07T10:55:15.463Z,3.00
2022-11-07T10:57:43.867Z,3.33
2022-11-07T11:00:30.345Z,2.67
2022-11-07T11:02:58.305Z,2.93
2022-11-07T11:05:31.207Z,2.80
2022-11-07T11:08:19.210Z,3.03
2022-11-07T11:10:47.284Z,3.13
2022-11-07T11:13:34.177Z,2.40
2022-11-07T11:16:27.357Z,3.47
2022-11-07T11:18:58.441Z,2.20
2022-11-07T11:21:26.035Z,3.03
2022-11-07T11:23:54.379Z,2.90
2022-11-07T11:26:21.242Z,3.00
2022-11-07T11:29:04.278Z,2.43
2022-11-07T11:31:43.299Z,2.60
2022-11-07T11:34:28.373Z,2.60
2022-11-07T11:37:17.276Z,2.73
2022-11-07T11:40:04.539Z,2.60
2022-11-07T11:43:00.511Z,2.47
2022-11-07T11:46:12.773Z,2.53
2022-11-07T11:49:01.590Z,2.70
2022-11-07T11:51:59.028Z,2.80
2022-11-07T11:54:25.965Z,3.17
2022-11-07T11:56:58.926Z,3.20
2022-11-07T11:59:46.602Z,2.63
2022-11-07T12:03:04.709Z,2.97
2022-11-07T12:05:55.539Z,2.37
2022-11-07T12:08:47.146Z,3.23
2022-11-07T12:11:39.039Z,2.53
2022-11-07T12:14:43.668Z,2.80
2022-11-07T12:18:04.053Z,2.90
2022-11-07T12:20:46.332Z,2.60
2022-11-07T12:23:54.722Z,2.20
2022-11-07T12:26:39.833Z,2.83
2022-11-07T12:29:37.391Z,3.00
2022-11-07T12:32:22.298Z,2.40
2022-11-07T12:35:33.522Z,3.03
2022-11-07T12:38:24.175Z,2.23
2022-11-07T12:41:28.615Z,2.70
2022-11-07T12:44:15.280Z,2.50
2022-11-07T12:46:56.956Z,2.03
2022-11-07T12:50:06.102Z,3.10
2022-11-07T12:53:08.281Z,2.50
2022-11-07T12:55:48.092Z,2.27
2022-11-07T12:58:21.184Z,2.40
2022-11-07T13:00:49.930Z,2.90
2022-11-07T13:03:57.596Z,2.17
2022-11-07T13:06:46.676Z,2.63
2022-11-07T13:09:39.474Z,2.17
2022-11-07T13:12:21.858Z,3.10
2022-11-07T13:14:49.249Z,2.30
2022-11-07T13:17:27.607Z,2.77
2022-11-07T13:20:05.639Z,2.40
2022-11-07T13:22:40.088Z,2.57
2022-11-07T13:25:16.967Z,2.63
2022-11-07T13:27:56.900Z,3.27
2022-11-07T13:30:37.890Z,2.60
2022-11-07T13:33:06.422Z,2.27
2022-11-07T13:35:36.905Z,2.23
2022-11-07T13:38:23.838Z,2.70
2022-11-07T13:41:05.023Z,2.67
2022-11-07T13:43:55.551Z,2.63
2022-11-07T13:46:46.717Z,2.60
2022-11-07T13:49:27.321Z,2.70
2022-11-07T13:51:59.065Z,2.53
2022-11-07T13:54:43.868Z,2.70
2022-11-07T13:57:19.408Z,2.30
2022-11-07T13:59:52.348Z,2.47
2022-11-07T14:02:29.040Z,2.87
2022-11-07T14:05:21.555Z,4.00
2022-11-07T14:07:54.285Z,3.00
2022-11-07T14:10:38.842Z,3.13
2022-11-07T14:13:10.858Z,2.63
2022-11-07T14:15:47.262Z,2.80
2022-11-07T14:18:16.787Z,2.80
2022-11-07T14:20:58.058Z,9.17
2022-11-07T14:23:28.652Z,3.50
2022-11-07T14:25:59.776Z,2.50
2022-11-07T14:28:38.648Z,2.80
2022-11-07T14:31:24.920Z,3.17
2022-11-07T14:33:55.953Z,2.47
2022-11-07T14:36:23.723Z,2.90
2022-11-07T14:38:54.899Z,2.90
2022-11-07T14:41:22.827Z,3.27
2022-11-07T14:43:50.267Z,3.80
2022-11-07T14:46:21.992Z,3.50
2022-11-07T14:48:51.346Z,2.57
2022-11-07T14:51:24.101Z,2.90
2022-11-07T14:54:05.708Z,2.20
2022-11-07T14:56:41.261Z,4.07
2022-11-07T14:59:16.877Z,2.87
2022-11-07T15:02:09.572Z,2.97
2022-11-07T15:04:39.517Z,3.33
2022-11-07T15:07:27.409Z,3.50
2022-11-07T15:09:58.019Z,3.10
2022-11-07T15:12:28.640Z,3.03
2022-11-07T15:15:02.710Z,3.50
2022-11-07T15:17:30.193Z,5.60
2022-11-07T15:20:04.674Z,3.50
2022-11-07T15:22:38.511Z,2.90
2022-11-07T15:25:33.035Z,2.50
2022-11-07T15:28:31.416Z,2.70
2022-11-07T15:31:01.792Z,2.93
2022-11-07T15:33:32.844Z,3.47
2022-11-07T15:36:01.697Z,2.40
2022-11-07T15:38:29.547Z,2.70
2022-11-07T15:40:56.703Z,2.70
2022-11-07T15:43:23.930Z,2.83
2022-11-07T15:45:52.654Z,2.67
2022-11-07T15:48:23.386Z,2.70
2022-11-07T15:50:50.632Z,2.50
2022-11-07T15:53:24.177Z,2.70
2022-11-07T15:55:53.883Z,2.73
2022-11-07T15:58:24.145Z,3.23
2022-11-07T16:00:52.569Z,2.60
2022-11-07T16:03:22.879Z,2.97
2022-11-07T16:05:52.473Z,2.63
2022-11-07T16:08:24.266Z,2.90
2022-11-07T16:11:01.216Z,9.13
2022-11-07T16:13:28.735Z,3.17
2022-11-07T16:16:03.283Z,3.37
2022-11-07T16:18:43.160Z,2.80
2022-11-07T16:21:10.047Z,2.70
2022-11-07T16:23:37.246Z,3.00
2022-11-07T16:26:04.133Z,2.30
2022-11-07T16:28:35.396Z,2.83
2022-11-07T16:31:03.316Z,2.20
2022-11-07T16:33:30.274Z,3.23
2022-11-07T16:36:00.875Z,2.13
2022-11-07T16:38:34.953Z,3.40
2022-11-07T16:41:02.464Z,4.07
2022-11-07T16:43:34.787Z,3.70
2022-11-07T16:46:01.758Z,3.30
2022-11-07T16:48:29.995Z,3.07
2022-11-07T16:50:58.020Z,5.27
2022-11-07T16:53:25.895Z,3.80
2022-11-07T16:56:01.980Z,6.17
2022-11-07T16:58:31.469Z,2.80
2022-11-07T17:01:05.139Z,3.97
2022-11-07T17:03:32.900Z,3.17
2022-11-07T17:06:02.682Z,3.00
2022-11-07T17:08:39.700Z,3.10
2022-11-07T17:11:07.271Z,3.37
2022-11-07T17:13:34.729Z,2.63
2022-11-07T17:16:01.656Z,3.50
2022-11-07T17:18:28.512Z,3.13
2022-11-07T17:20:56.429Z,2.67
2022-11-07T17:23:29.903Z,3.60
2022-11-07T17:26:00.604Z,3.20
2022-11-07T17:28:27.560Z,2.90
2022-11-07T17:30:54.446Z,3.07
2022-11-07T17:33:21.419Z,3.30
2022-11-07T17:35:50.290Z,2.87
2022-11-07T17:38:17.656Z,3.97
2022-11-07T17:40:45.005Z,3.10
2022-11-07T17:43:11.886Z,3.00
2022-11-07T17:45:39.721Z,3.60
2022-11-07T17:48:06.745Z,3.70
2022-11-07T17:50:33.638Z,2.97
2022-11-07T17:53:00.524Z,3.37
2022-11-07T17:55:27.415Z,9.50
2022-11-07T17:57:54.719Z,3.23
2022-11-07T18:00:24.528Z,2.60
2022-11-07T18:02:52.919Z,3.00
2022-11-07T18:05:22.581Z,3.10
2022-11-07T18:07:49.573Z,3.40
2022-11-07T18:10:17.225Z,2.60
2022-11-07T18:12:44.132Z,2.80
2022-11-07T18:15:12.905Z,3.57
2022-11-07T18:17:41.454Z,2.43
2022-11-07T18:20:09.918Z,2.97
2022-11-07T18:22:37.284Z,2.80
2022-11-07T18:25:06.565Z,3.00
2022-11-07T18:27:33.987Z,3.00
2022-11-07T18:30:00.894Z,2.70
2022-11-07T18:32:35.502Z,3.03
2022-11-07T18:35:05.926Z,4.30
2022-11-07T18:37:32.978Z,3.60
2022-11-07T18:39:59.853Z,2.57
2022-11-07T18:42:26.814Z,2.90
2022-11-07T18:44:53.690Z,3.13
2022-11-07T18:47:20.577Z,2.80
2022-11-07T18:49:48.338Z,2.93
2022-11-07T18:52:17.420Z,2.90
2022-11-07T18:54:44.301Z,3.73
2022-11-07T18:57:11.180Z,2.90
2022-11-07T18:59:38.110Z,2.90
2022-11-07T19:02:05.085Z,3.73
2022-11-07T19:04:32.059Z,3.00
2022-11-07T19:06:58.978Z,3.13
2022-11-07T19:09:32.349Z,2.93
2022-11-07T19:12:00.558Z,2.63
2022-11-07T19:14:28.599Z,3.57
2022-11-07T19:16:55.907Z,2.80
2022-11-07T19:19:22.966Z,2.67
2022-11-07T19:21:50.062Z,2.70
2022-11-07T19:24:16.999Z,2.43
2022-11-07T19:26:43.949Z,3.17
2022-11-07T19:29:10.972Z,3.33
2022-11-07T19:31:38.334Z,2.87
2022-11-07T19:34:06.166Z,2.70
2022-11-07T19:36:33.849Z,2.90
2022-11-07T19:39:02.916Z,2.70
2022-11-07T19:41:29.839Z,7.20
2022-11-07T19:43:57.318Z,2.73
2022-11-07T19:46:24.695Z,3.03
2022-11-07T19:48:51.905Z,3.17
2022-11-07T19:51:22.774Z,2.90
2022-11-07T19:53:55.037Z,3.17
2022-11-07T19:56:22.509Z,2.70
2022-11-07T19:58:49.485Z,2.73
2022-11-07T20:01:20.536Z,2.93
2022-11-07T20:03:50.622Z,3.50
2022-11-07T20:06:21.656Z,2.93
2022-11-07T20:08:48.827Z,2.23
2022-11-07T20:11:22.918Z,3.40
2022-11-07T20:13:50.041Z,2.80
2022-11-07T20:16:17.412Z,3.70
2022-11-07T20:18:44.682Z,3.77
2022-11-07T20:21:15.587Z,3.00
2022-11-07T20:23:44.208Z,2.90
2022-11-07T20:26:24.485Z,2.77
2022-11-07T20:28:52.047Z,3.30
2022-11-07T20:31:23.943Z,2.80
2022-11-07T20:33:51.439Z,3.40
2022-11-07T20:36:19.291Z,2.53
2022-11-07T20:38:46.343Z,2.93
2022-11-07T20:41:14.073Z,3.13
2022-11-07T20:43:43.573Z,3.50
2022-11-07T20:46:15.064Z,3.63
2022-11-07T20:48:42.962Z,3.57
2022-11-07T20:51:20.008Z,3.50
2022-11-07T20:53:50.328Z,2.50
2022-11-07T20:56:19.890Z,4.00
2022-11-07T20:58:47.607Z,2.50
2022-11-07T21:01:23.394Z,2.57
2022-11-07T21:03:50.822Z,2.70
2022-11-07T21:06:18.225Z,2.70
2022-11-07T21:08:48.555Z,2.70
2022-11-07T21:11:16.040Z,2.90
2022-11-07T21:13:51.158Z,3.00
2022-11-07T21:16:21.688Z,2.60
2022-11-07T21:18:50.219Z,2.80
2022-11-07T21:21:27.524Z,2.70
2022-11-07T21:23:57.031Z,3.00
2022-11-07T21:26:31.783Z,2.70
2022-11-07T21:28:59.651Z,2.53
2022-11-07T21:31:29.833Z,2.43
2022-11-07T21:33:57.557Z,2.53
2022-11-07T21:36:27.660Z,2.77
2022-11-07T21:38:56.896Z,2.47
2022-11-07T21:41:24.944Z,2.30
2022-11-07T21:43:52.474Z,3.07
2022-11-07T21:46:25.836Z,2.70
2022-11-07T21:48:53.596Z,3.57
2022-11-07T21:51:30.144Z,2.90
2022-11-07T21:53:58.154Z,2.67
2022-11-07T21:56:31.940Z,2.83
2022-11-07T21:59:02.087Z,3.23
2022-11-07T22:01:34.813Z,2.60
2022-11-07T22:04:07.431Z,3.00
2022-11-07T22:06:39.098Z,3.23
2022-11-07T22:09:07.797Z,2.60
2022-11-07T22:11:34.961Z,2.00
2022-11-07T22:14:02.038Z,2.00
2022-11-07T22:16:29.027Z,2.67
2022-11-07T22:18:56.007Z,2.33
2022-11-07T22:21:23.534Z,2.20
2022-11-07T22:23:51.132Z,2.20
2022-11-07T22:26:21.278Z,2.67
2022-11-07T22:28:49.414Z,2.40
2022-11-07T22:31:19.278Z,2.67
2022-11-07T22:33:46.829Z,2.73
2022-11-07T22:36:13.879Z,2.40
2022-11-07T22:38:41.392Z,2.83
2022-11-07T22:41:13.943Z,2.33
2022-11-07T22:43:41.317Z,3.00
2022-11-07T22:46:14.879Z,2.77
2022-11-07T22:48:42.278Z,2.13
2022-11-07T22:51:21.459Z,2.50
2022-11-07T22:53:48.544Z,2.33
2022-11-07T22:56:19.163Z,2.33
2022-11-07T22:58:47.460Z,2.03
2022-11-07T23:01:26.036Z,3.03
2022-11-07T23:03:56.222Z,2.83
2022-11-07T23:06:24.185Z,2.77
2022-11-07T23:08:52.019Z,2.23
2022-11-07T23:11:45.339Z,2.00
2022-11-07T23:14:13.421Z,2.50
2022-11-07T23:16:48.192Z,2.10
2022-11-07T23:19:17.644Z,2.43
2022-11-07T23:21:44.656Z,2.60
2022-11-07T23:24:11.723Z,2.33
2022-11-07T23:26:39.083Z,2.90
2022-11-07T23:29:14.298Z,2.07
2022-11-07T23:31:45.325Z,2.20
2022-11-07T23:34:12.813Z,2.60
2022-11-07T23:36:46.247Z,2.40
2022-11-07T23:39:18.123Z,2.67
2022-11-07T23:41:45.306Z,2.57
2022-11-07T23:44:13.255Z,2.40
2022-11-07T23:46:59.970Z,2.43
2022-11-07T23:49:45.598Z,2.40
2022-11-07T23:52:12.835Z,2.33
2022-11-07T23:54:58.632Z,2.80
2022-11-07T23:57:25.571Z,2.60
